Time;durP1;ratioP1;P1;durP2;ratioP2;P2;SDS_P1;SDS_P2;PMS_P1;PMS_P2;Temp;Humidity;BMP_temperature;BMP_pressure;BME280_temperature;BME280_humidity;BME280_pressure;Samples;Min_cycle;Max_cycle;Signal;HPM_P1;HPM_P2
2021/07/04 00:00:12;;;;;;;9.07;3.30;;;22.70;96.80;;;;;;5049563;28;20037;-69
2021/07/04 00:03:17;;;;;;;6.25;3.13;;;22.60;96.90;;;;;;5049809;28;20041;-69
2021/07/04 00:06:21;;;;;;;7.20;3.40;;;22.50;97.10;;;;;;5050324;28;20041;-69
2021/07/04 00:09:26;;;;;;;5.07;3.45;;;22.50;97.40;;;;;;5049828;28;20044;-69
2021/07/04 00:12:29;;;;;;;9.65;3.70;;;22.50;97.50;;;;;;5049807;28;20043;-69
2021/07/04 00:15:40;;;;;;;6.72;3.47;;;22.40;97.00;;;;;;5049328;28;20037;-69
2021/07/04 00:18:45;;;;;;;9.60;3.58;;;22.40;96.90;;;;;;5047652;28;20038;-69
2021/07/04 00:21:49;;;;;;;7.97;3.85;;;22.30;96.70;;;;;;5039473;28;20050;-69
2021/07/04 00:24:54;;;;;;;6.18;3.40;;;22.30;96.80;;;;;;5048852;28;20045;-69
2021/07/04 00:27:59;;;;;;;6.85;3.50;;;22.20;96.90;;;;;;5049479;28;20056;-69
2021/07/04 00:31:05;;;;;;;5.68;3.35;;;22.10;97.00;;;;;;5049292;28;20060;-68
2021/07/04 00:34:09;;;;;;;6.38;3.60;;;22.10;97.00;;;;;;5047497;28;20052;-69
2021/07/04 00:37:14;;;;;;;7.47;3.83;;;22.00;97.20;;;;;;5049305;28;20041;-68
2021/07/04 00:40:20;;;;;;;9.80;3.30;;;22.00;97.50;;;;;;5041195;28;20033;-69
2021/07/04 00:43:25;;;;;;;5.57;3.42;;;21.90;97.70;;;;;;5050102;28;20369;-68
2021/07/04 00:46:31;;;;;;;6.47;3.20;;;21.80;97.70;;;;;;5048817;28;20052;-69
2021/07/04 00:49:35;;;;;;;5.57;3.83;;;21.80;97.60;;;;;;5029778;28;20526;-68
2021/07/04 00:52:42;;;;;;;6.60;3.83;;;21.80;97.80;;;;;;5031109;28;20044;-69
2021/07/04 00:55:46;;;;;;;4.00;2.72;;;21.80;97.80;;;;;;5035798;28;20075;-69
2021/07/04 00:58:52;;;;;;;3.97;3.47;;;21.80;97.70;;;;;;5051950;28;20044;-69
2021/07/04 01:01:58;;;;;;;7.18;3.40;;;21.70;97.70;;;;;;5053144;28;20067;-69
2021/07/04 01:05:10;;;;;;;7.82;3.40;;;21.70;97.60;;;;;;5051916;28;20048;-69
2021/07/04 01:08:14;;;;;;;6.30;3.43;;;21.70;97.60;;;;;;5051970;28;20047;-69
2021/07/04 01:11:20;;;;;;;6.60;3.50;;;21.60;97.70;;;;;;5052469;28;20041;-69
2021/07/04 01:14:25;;;;;;;4.68;3.47;;;21.60;97.90;;;;;;5051517;28;20430;-69
2021/07/04 01:17:32;;;;;;;8.90;4.10;;;21.50;98.10;;;;;;5051478;28;20044;-69
2021/07/04 01:20:38;;;;;;;7.32;4.05;;;21.40;98.60;;;;;;5051166;28;20045;-69
2021/07/04 01:23:44;;;;;;;6.25;3.67;;;21.40;98.80;;;;;;5051572;28;20419;-69
2021/07/04 01:26:50;;;;;;;8.30;4.18;;;21.30;98.90;;;;;;5051552;28;20506;-69
2021/07/04 01:29:55;;;;;;;8.18;4.15;;;21.30;99.00;;;;;;5051710;28;20564;-69
2021/07/04 01:32:59;;;;;;;8.15;3.90;;;21.20;99.40;;;;;;5051497;28;20053;-69
2021/07/04 01:36:05;;;;;;;7.07;4.00;;;21.20;99.30;;;;;;5052442;28;20036;-69
2021/07/04 01:39:12;;;;;;;4.47;3.40;;;21.20;99.40;;;;;;5051216;28;20037;-69
2021/07/04 01:42:22;;;;;;;8.20;3.88;;;21.20;99.30;;;;;;5051799;28;20050;-68
2021/07/04 01:45:28;;;;;;;7.30;4.35;;;21.20;99.40;;;;;;5051131;28;20052;-68
2021/07/04 01:48:32;;;;;;;4.05;3.10;;;21.20;99.60;;;;;;5051231;28;20041;-69
2021/07/04 01:51:40;;;;;;;7.22;3.50;;;21.20;99.50;;;;;;5050868;28;20369;-69
2021/07/04 01:54:49;;;;;;;6.43;3.63;;;21.10;99.90;;;;;;5051097;28;20053;-69
2021/07/04 01:57:56;;;;;;;7.65;3.30;;;21.10;99.90;;;;;;5050881;28;20041;-69
2021/07/04 02:01:10;;;;;;;8.52;3.15;;;21.10;99.90;;;;;;5050748;28;20501;-69
2021/07/04 02:04:14;;;;;;;5.38;3.33;;;21.10;99.80;;;;;;5051670;28;20050;-69
2021/07/04 02:07:22;;;;;;;8.15;3.22;;;21.00;99.80;;;;;;5052112;28;20047;-69
2021/07/04 02:10:33;;;;;;;6.55;3.10;;;21.00;99.40;;;;;;5051607;28;20052;-68
2021/07/04 02:13:38;;;;;;;7.53;3.58;;;21.00;99.30;;;;;;5051870;28;20040;-69
2021/07/04 02:16:48;;;;;;;8.57;3.50;;;20.90;99.30;;;;;;5050729;28;20075;-68
2021/07/04 02:20:38;;;;;;;9.98;4.05;;;21.00;99.00;;;;;;5051049;28;20040;-68
2021/07/04 02:24:03;;;;;;;7.68;2.75;;;21.00;98.70;;;;;;5051561;28;20056;-68
2021/07/04 02:27:12;;;;;;;9.10;2.95;;;21.00;98.50;;;;;;5051517;28;20072;-68
2021/07/04 02:30:22;;;;;;;5.20;3.03;;;21.00;98.30;;;;;;5049872;28;20060;-68
2021/07/04 02:33:31;;;;;;;10.18;2.67;;;21.00;97.90;;;;;;5051490;28;20215;-68
2021/07/04 02:36:36;;;;;;;9.52;2.95;;;21.00;97.40;;;;;;5050497;28;20040;-68
2021/07/04 02:39:51;;;;;;;6.10;3.10;;;21.00;97.30;;;;;;5049021;28;20399;-69
2021/07/04 02:42:57;;;;;;;11.02;2.83;;;21.00;96.90;;;;;;5050877;28;20068;-69
2021/07/04 02:46:01;;;;;;;9.00;2.42;;;21.00;96.20;;;;;;5050947;28;20048;-69
2021/07/04 02:49:06;;;;;;;6.28;2.42;;;21.00;95.80;;;;;;5049954;28;20045;-69
2021/07/04 02:52:10;;;;;;;5.68;2.47;;;21.00;95.50;;;;;;5049428;28;20056;-69
2021/07/04 02:55:16;;;;;;;5.22;2.30;;;21.00;95.10;;;;;;5050096;28;20041;-69
2021/07/04 02:58:22;;;;;;;5.50;2.10;;;21.00;94.90;;;;;;5050929;28;20044;-69
2021/07/04 03:01:29;;;;;;;3.80;2.22;;;21.00;94.50;;;;;;5061160;28;20037;-70
2021/07/04 03:04:34;;;;;;;7.00;2.40;;;21.00;94.20;;;;;;5051260;28;20385;-69
2021/07/04 03:07:41;;;;;;;5.55;2.40;;;20.90;93.90;;;;;;5050196;28;20502;-69
2021/07/04 03:10:47;;;;;;;5.68;1.98;;;21.00;93.50;;;;;;5060768;28;20041;-69
2021/07/04 03:13:55;;;;;;;3.22;1.88;;;21.00;93.20;;;;;;5049564;28;20037;-70
2021/07/04 03:17:00;;;;;;;6.55;1.90;;;21.00;92.90;;;;;;5049768;28;20508;-68
2021/07/04 03:20:11;;;;;;;3.10;2.00;;;21.10;92.80;;;;;;5048851;28;20048;-69
2021/07/04 03:23:17;;;;;;;6.40;2.00;;;21.00;92.60;;;;;;5061283;28;20029;-69
2021/07/04 03:26:25;;;;;;;30.65;3.58;;;21.00;92.10;;;;;;5049551;28;20045;-69
2021/07/04 03:29:33;;;;;;;6.10;1.80;;;21.00;92.00;;;;;;5049550;28;20526;-69
2021/07/04 03:32:39;;;;;;;4.00;1.85;;;21.00;91.80;;;;;;5049587;28;20056;-69
2021/07/04 03:35:45;;;;;;;3.38;2.03;;;21.00;91.40;;;;;;5049605;28;20033;-69
2021/07/04 03:38:49;;;;;;;6.13;3.03;;;20.90;91.10;;;;;;5050434;28;20048;-69
2021/07/04 03:41:55;;;;;;;6.93;2.58;;;20.70;94.50;;;;;;5050030;28;20040;-69
2021/07/04 03:44:59;;;;;;;5.05;2.67;;;20.60;95.40;;;;;;5050487;28;20060;-69
2021/07/04 03:48:04;;;;;;;6.00;3.05;;;20.30;96.90;;;;;;5052705;28;20526;-70
2021/07/04 03:51:17;;;;;;;7.82;3.70;;;20.10;97.80;;;;;;5048659;28;20052;-69
2021/07/04 03:54:21;;;;;;;5.38;3.13;;;20.00;99.80;;;;;;5050073;28;20044;-69
2021/07/04 03:57:28;;;;;;;8.65;3.50;;;19.90;99.90;;;;;;5049995;28;20051;-69
2021/07/04 04:01:00;;;;;;;9.70;3.33;;;19.80;99.90;;;;;;5049191;28;20387;-69
2021/07/04 04:04:12;;;;;;;7.45;3.63;;;19.70;99.90;;;;;;5049265;28;20068;-69
2021/07/04 04:07:18;;;;;;;6.30;3.40;;;19.70;99.90;;;;;;5049040;28;20052;-69
2021/07/04 04:10:23;;;;;;;10.10;4.07;;;19.60;99.90;;;;;;5048955;28;20052;-68
2021/07/04 04:13:31;;;;;;;7.38;3.83;;;19.60;99.90;;;;;;5049106;28;20048;-69
2021/07/04 04:16:42;;;;;;;10.85;4.25;;;19.50;99.90;;;;;;5048934;28;20048;-69
2021/07/04 04:19:47;;;;;;;7.00;4.65;;;19.50;99.90;;;;;;5048746;28;20051;-69
2021/07/04 04:22:52;;;;;;;10.02;4.82;;;19.40;99.90;;;;;;5048908;28;20047;-70
2021/07/04 04:25:56;;;;;;;10.18;4.65;;;19.40;99.90;;;;;;5050895;28;20048;-68
2021/07/04 04:29:00;;;;;;;9.18;4.07;;;19.50;99.90;;;;;;5053411;28;20052;-68
2021/07/04 04:32:06;;;;;;;10.95;4.80;;;19.60;99.90;;;;;;5049256;28;20044;-69
2021/07/04 04:35:11;;;;;;;7.88;5.07;;;20.00;99.90;;;;;;5043163;28;20819;-69
2021/07/04 04:38:15;;;;;;;6.57;3.78;;;20.90;99.90;;;;;;5040433;28;20047;-69
2021/07/04 04:41:19;;;;;;;6.75;2.95;;;22.30;99.90;;;;;;5053062;28;20214;-69
2021/07/04 04:44:27;;;;;;;13.98;4.65;;;23.30;99.80;;;;;;5033673;28;20045;-69
2021/07/04 04:47:31;;;;;;;8.68;4.07;;;23.60;98.40;;;;;;5035663;28;20498;-69
2021/07/04 04:50:36;;;;;;;7.60;2.90;;;23.90;97.90;;;;;;5049947;28;20044;-69
2021/07/04 04:53:40;;;;;;;6.57;3.03;;;25.50;95.40;;;;;;5050582;28;20043;-69
2021/07/04 04:56:45;;;;;;;5.80;2.88;;;26.00;94.20;;;;;;5033367;28;20041;-69
2021/07/04 04:59:50;;;;;;;10.60;2.80;;;26.40;93.60;;;;;;5048173;28;20072;-69
2021/07/04 05:02:54;;;;;;;7.32;2.80;;;27.70;91.70;;;;;;5052726;28;20407;-69
2021/07/04 05:06:00;;;;;;;4.80;2.50;;;28.50;90.10;;;;;;5052475;28;20044;-69
2021/07/04 05:09:04;;;;;;;4.15;2.33;;;29.40;87.30;;;;;;5033252;28;20117;-69
2021/07/04 05:12:08;;;;;;;7.32;2.58;;;30.00;85.40;;;;;;5032679;28;20041;-69
2021/07/04 05:15:12;;;;;;;5.72;2.90;;;30.30;83.90;;;;;;5020682;28;20053;-69
2021/07/04 05:18:16;;;;;;;10.18;2.80;;;29.90;84.40;;;;;;5032936;28;20076;-70
2021/07/04 05:21:20;;;;;;;7.05;2.78;;;30.10;85.90;;;;;;5032526;28;20048;-69
2021/07/04 05:24:25;;;;;;;8.45;3.38;;;29.80;87.00;;;;;;5039181;28;20044;-70
2021/07/04 05:27:29;;;;;;;10.23;3.50;;;27.10;91.40;;;;;;5052598;28;20060;-69
2021/07/04 05:30:33;;;;;;;8.13;3.70;;;26.60;91.90;;;;;;5052310;28;20047;-68
2021/07/04 05:33:37;;;;;;;6.75;3.22;;;24.80;94.70;;;;;;5052653;28;20040;-69
2021/07/04 05:36:45;;;;;;;7.28;3.50;;;25.20;96.10;;;;;;5051770;28;20327;-69
2021/07/04 05:39:49;;;;;;;5.30;3.25;;;25.70;95.40;;;;;;5052267;28;20056;-69
2021/07/04 05:42:55;;;;;;;7.25;3.67;;;27.30;94.00;;;;;;5052020;28;20055;-69
2021/07/04 05:46:00;;;;;;;7.45;3.22;;;27.60;93.20;;;;;;5052570;28;20044;-69
2021/07/04 05:49:05;;;;;;;4.93;2.95;;;28.30;92.50;;;;;;5052836;28;20044;-69
2021/07/04 05:52:10;;;;;;;6.80;3.25;;;28.90;91.40;;;;;;5051825;28;20044;-69
2021/07/04 05:55:14;;;;;;;5.88;3.00;;;29.80;90.50;;;;;;5051143;28;20047;-69
2021/07/04 05:58:19;;;;;;;9.30;2.90;;;29.40;90.00;;;;;;5051330;28;20036;-69
2021/07/04 06:01:23;;;;;;;10.82;3.03;;;29.30;90.20;;;;;;5046572;28;20040;-69
2021/07/04 06:04:28;;;;;;;4.75;2.60;;;30.30;89.40;;;;;;5051358;28;20395;-69
2021/07/04 06:07:33;;;;;;;9.48;3.28;;;30.40;88.80;;;;;;5051734;28;20044;-69
2021/07/04 06:10:38;;;;;;;6.60;3.38;;;30.10;88.30;;;;;;5050753;28;20044;-69
2021/07/04 06:13:42;;;;;;;6.18;2.88;;;29.20;87.60;;;;;;5048946;28;20044;-70
2021/07/04 06:16:48;;;;;;;5.40;2.75;;;29.20;88.80;;;;;;5051109;28;20514;-69
2021/07/04 06:19:52;;;;;;;7.45;2.63;;;28.60;90.30;;;;;;5051002;28;20048;-69
2021/07/04 06:22:57;;;;;;;8.18;2.65;;;29.90;88.00;;;;;;5051153;28;20048;-68
2021/07/04 06:26:01;;;;;;;8.88;2.80;;;30.20;85.40;;;;;;5050828;28;20055;-68
2021/07/04 06:29:05;;;;;;;8.60;2.85;;;29.80;86.70;;;;;;5049070;28;20040;-68
2021/07/04 06:32:09;;;;;;;6.07;3.10;;;30.30;85.40;;;;;;5043151;28;20044;-69
2021/07/04 06:35:15;;;;;;;7.07;2.33;;;30.10;85.80;;;;;;5050724;28;20044;-69
2021/07/04 06:38:19;;;;;;;21.67;3.90;;;30.20;86.70;;;;;;5050731;28;20036;-69
2021/07/04 06:41:24;;;;;;;8.23;2.58;;;30.60;85.50;;;;;;5050244;28;20040;-68
2021/07/04 06:44:28;;;;;;;4.10;2.53;;;30.50;85.60;;;;;;5050531;28;20063;-69
2021/07/04 06:47:33;;;;;;;5.78;2.50;;;30.70;85.80;;;;;;5050506;28;20047;-68
2021/07/04 06:50:37;;;;;;;4.32;2.80;;;31.10;84.10;;;;;;5048930;28;20067;-68
2021/07/04 06:53:42;;;;;;;6.13;2.50;;;30.90;83.60;;;;;;5049284;28;20048;-68
2021/07/04 06:56:47;;;;;;;5.25;2.50;;;31.00;82.10;;;;;;5047347;28;20530;-69
2021/07/04 06:59:51;;;;;;;3.35;2.03;;;31.40;81.70;;;;;;5049585;28;20100;-68
2021/07/04 07:02:55;;;;;;;3.85;1.70;;;31.80;80.50;;;;;;5047708;28;20032;-68
2021/07/04 07:05:59;;;;;;;4.25;2.10;;;32.70;76.80;;;;;;5049394;28;20040;-69
2021/07/04 07:09:03;;;;;;;6.95;2.00;;;32.70;77.10;;;;;;5049993;28;20625;-69
2021/07/04 07:12:08;;;;;;;3.08;2.03;;;31.70;76.90;;;;;;5049091;28;20048;-70
2021/07/04 07:15:12;;;;;;;4.15;1.73;;;32.00;77.00;;;;;;5048901;28;20044;-69
2021/07/04 07:18:18;;;;;;;5.05;2.20;;;32.10;76.50;;;;;;5049189;28;20491;-69
2021/07/04 07:21:21;;;;;;;4.15;2.05;;;32.40;76.60;;;;;;5047816;28;20262;-69
2021/07/04 07:24:27;;;;;;;5.80;1.80;;;33.10;75.00;;;;;;5045185;28;20040;-69
2021/07/04 07:27:32;;;;;;;9.35;2.03;;;34.20;73.80;;;;;;5047237;28;20067;-69
2021/07/04 07:30:40;;;;;;;5.03;1.70;;;35.70;71.30;;;;;;5047252;28;20040;-70
2021/07/04 07:33:46;;;;;;;3.75;1.55;;;36.60;68.90;;;;;;5042353;28;20387;-70
2021/07/04 07:36:51;;;;;;;8.07;1.67;;;35.80;68.90;;;;;;5048204;28;20039;-69
2021/07/04 07:39:55;;;;;;;3.20;1.45;;;35.10;70.70;;;;;;5049547;28;20047;-69
2021/07/04 07:42:58;;;;;;;15.73;2.30;;;33.40;70.10;;;;;;5047092;28;20048;-69
2021/07/04 07:46:04;;;;;;;4.28;1.52;;;33.00;72.50;;;;;;5047020;28;20064;-69
2021/07/04 07:49:09;;;;;;;3.67;1.40;;;34.10;70.90;;;;;;5047407;28;20056;-69
2021/07/04 07:52:22;;;;;;;6.00;1.83;;;33.30;69.50;;;;;;5047510;28;20044;-69
2021/07/04 07:55:26;;;;;;;4.32;1.63;;;31.80;72.20;;;;;;5048809;28;20502;-69
2021/07/04 07:58:32;;;;;;;3.28;1.48;;;31.10;72.80;;;;;;5048672;28;20047;-69
2021/07/04 08:01:36;;;;;;;2.53;1.48;;;33.10;72.60;;;;;;5046968;28;20040;-68
2021/07/04 08:04:45;;;;;;;3.03;1.52;;;32.70;70.30;;;;;;5042997;28;20052;-69
2021/07/04 08:07:50;;;;;;;2.47;1.50;;;34.40;70.90;;;;;;5048382;28;20040;-68
2021/07/04 08:10:57;;;;;;;4.28;1.70;;;36.10;68.30;;;;;;5039796;28;20048;-70
2021/07/04 08:14:02;;;;;;;6.50;1.50;;;36.40;67.30;;;;;;5038407;28;20040;-69
2021/07/04 08:17:07;;;;;;;6.20;1.63;;;34.10;67.90;;;;;;5044849;28;20040;-70
2021/07/04 08:20:12;;;;;;;2.92;1.63;;;34.80;68.90;;;;;;5049095;28;20122;-70
2021/07/04 08:23:17;;;;;;;8.40;1.40;;;36.60;66.90;;;;;;5049763;28;20044;-69
2021/07/04 08:26:21;;;;;;;3.10;1.45;;;35.50;66.60;;;;;;5049417;28;20040;-69
2021/07/04 08:29:27;;;;;;;3.13;1.55;;;34.20;67.80;;;;;;5049426;28;20056;-69
2021/07/04 08:32:31;;;;;;;5.75;1.60;;;35.00;68.60;;;;;;5049559;28;20399;-68
2021/07/04 08:35:36;;;;;;;3.03;1.20;;;33.70;68.00;;;;;;5049752;28;20518;-69
2021/07/04 08:38:41;;;;;;;4.07;1.60;;;34.90;67.20;;;;;;5048797;28;20039;-69
2021/07/04 08:41:45;;;;;;;11.88;1.85;;;34.00;67.40;;;;;;5049073;28;20367;-68
2021/07/04 08:44:54;;;;;;;4.43;1.25;;;35.90;67.40;;;;;;5049252;28;20104;-68
2021/07/04 08:47:59;;;;;;;3.40;1.20;;;37.50;64.80;;;;;;5049224;28;20040;-68
2021/07/04 08:51:07;;;;;;;5.55;1.33;;;38.70;63.30;;;;;;5049140;28;20059;-69
2021/07/04 08:54:12;;;;;;;3.35;1.52;;;40.60;61.30;;;;;;5048680;28;20039;-70
2021/07/04 08:57:17;;;;;;;2.78;1.48;;;39.60;59.50;;;;;;5047248;28;20040;-69
2021/07/04 09:01:15;;;;;;;6.25;1.83;;;36.90;61.50;;;;;;5062837;28;20424;-48
2021/07/04 09:04:25;;;;;;;3.40;1.70;;;35.20;64.40;;;;;;5037274;28;20037;-51
2021/07/04 09:07:31;;;;;;;4.80;1.50;;;33.90;67.20;;;;;;5047411;28;20369;-48
2021/07/04 09:10:35;;;;;;;3.42;1.63;;;35.00;67.20;;;;;;5046982;28;20041;-52
2021/07/04 09:13:42;;;;;;;3.63;1.73;;;36.90;64.20;;;;;;5047123;28;20033;-51
2021/07/04 09:16:51;;;;;;;6.38;1.77;;;34.90;64.70;;;;;;5045082;28;20033;-49
2021/07/04 09:19:57;;;;;;;4.65;1.90;;;33.10;65.30;;;;;;5046731;28;20037;-48
2021/07/04 09:23:02;;;;;;;4.13;1.98;;;32.90;67.70;;;;;;5046100;28;20034;-47
2021/07/04 09:26:06;;;;;;;2.97;1.80;;;33.70;67.00;;;;;;5046038;28;20041;-47
2021/07/04 09:29:10;;;;;;;5.18;1.20;;;34.50;66.60;;;;;;5046800;28;20400;-50
2021/07/04 09:32:27;;;;;;;3.97;1.52;;;35.70;66.30;;;;;;5046532;28;20053;-46
2021/07/04 09:35:31;;;;;;;6.00;1.35;;;39.00;63.40;;;;;;5026782;28;20038;-46
2021/07/04 09:38:41;;;;;;;6.07;1.70;;;36.50;63.50;;;;;;5026704;28;20038;-48
2021/07/04 09:42:06;;;;;;;3.25;1.70;;;38.00;63.30;;;;;;5026443;28;20026;-47
2021/07/04 09:45:11;;;;;;;3.58;1.77;;;34.30;65.20;;;;;;5040141;28;20372;-46
2021/07/04 09:48:35;;;;;;;6.28;2.08;;;35.50;66.70;;;;;;5046468;28;20025;-48
2021/07/04 09:51:39;;;;;;;5.80;1.60;;;36.90;64.80;;;;;;5046010;28;20373;-51
2021/07/04 09:54:57;;;;;;;3.25;1.45;;;40.20;62.50;;;;;;5046106;28;20037;-49
2021/07/04 09:58:08;;;;;;;5.82;1.65;;;43.00;58.70;;;;;;5037559;28;20029;-47
2021/07/04 10:01:46;;;;;;;5.75;1.40;;;40.00;60.00;;;;;;5025982;28;20435;-46
2021/07/04 10:04:50;;;;;;;6.88;1.60;;;42.50;58.10;;;;;;5040160;28;20033;-47
2021/07/04 10:07:54;;;;;;;5.90;1.58;;;41.60;58.40;;;;;;5046245;28;20045;-47
2021/07/04 10:11:10;;;;;;;4.00;1.55;;;41.70;59.90;;;;;;5039146;28;20510;-47
2021/07/04 10:14:15;;;;;;;5.18;1.70;;;38.70;60.40;;;;;;5027065;28;20487;-47
2021/07/04 10:17:22;;;;;;;7.05;2.05;;;38.60;61.10;;;;;;5021040;28;20034;-47
2021/07/04 10:20:29;;;;;;;5.47;1.70;;;39.20;62.00;;;;;;5020669;28;20034;-47
2021/07/04 10:23:33;;;;;;;6.25;2.10;;;36.20;63.90;;;;;;5019438;28;20030;-46
2021/07/04 10:26:40;;;;;;;4.40;1.50;;;38.10;63.50;;;;;;5020356;28;20029;-47
2021/07/04 10:29:44;;;;;;;6.80;1.75;;;38.50;61.30;;;;;;5020940;28;20049;-45
2021/07/04 10:33:12;;;;;;;3.22;1.98;;;36.10;62.70;;;;;;5012218;28;20046;-46
2021/07/04 10:36:20;;;;;;;5.35;1.70;;;34.30;66.60;;;;;;5013526;28;20041;-46
2021/07/04 10:39:25;;;;;;;6.35;1.88;;;34.70;65.40;;;;;;5014529;28;20401;-46
2021/07/04 10:42:36;;;;;;;7.70;1.88;;;35.40;66.00;;;;;;5013005;28;20034;-45
2021/07/04 10:45:45;;;;;;;4.75;2.20;;;34.80;66.60;;;;;;5011283;28;20034;-46
2021/07/04 10:48:56;;;;;;;8.73;2.10;;;34.30;67.20;;;;;;5015956;28;20499;-49
2021/07/04 10:52:19;;;;;;;5.93;2.08;;;35.70;66.30;;;;;;5020461;28;20470;-46
2021/07/04 10:55:33;;;;;;;4.75;1.73;;;33.30;68.10;;;;;;5053366;22;20024;-48
2021/07/04 10:59:02;;;;;;;5.38;1.83;;;35.60;65.80;;;;;;5045026;28;20041;-48
2021/07/04 11:02:07;;;;;;;6.88;1.88;;;37.10;63.60;;;;;;5042627;28;20048;-50
2021/07/04 11:05:34;;;;;;;2.95;1.50;;;38.30;61.50;;;;;;5042733;28;20041;-50
2021/07/04 11:08:52;;;;;;;3.42;1.42;;;38.70;60.80;;;;;;5042098;28;20052;-48
2021/07/04 11:12:28;;;;;;;4.65;1.85;;;38.60;60.60;;;;;;5038294;28;20066;-50
2021/07/04 11:15:33;;;;;;;3.50;1.38;;;38.60;60.50;;;;;;5041735;28;20054;-50
2021/07/04 11:18:40;;;;;;;5.13;1.63;;;39.30;59.60;;;;;;5041621;28;20037;-50
2021/07/04 11:21:50;;;;;;;3.28;1.83;;;39.90;59.10;;;;;;5041415;28;20045;-50
2021/07/04 11:25:15;;;;;;;3.10;1.45;;;40.00;58.80;;;;;;5040844;28;20029;-50
2021/07/04 11:28:26;;;;;;;2.85;1.50;;;39.70;59.10;;;;;;5041810;28;20048;-51
2021/07/04 11:31:31;;;;;;;5.28;1.75;;;39.50;59.20;;;;;;5044449;28;20420;-50
2021/07/04 11:34:48;;;;;;;3.97;1.67;;;38.10;58.50;;;;;;5039489;28;20045;-49
2021/07/04 11:37:52;;;;;;;6.90;2.10;;;35.30;62.30;;;;;;5043008;28;20040;-50
2021/07/04 11:40:57;;;;;;;5.07;1.83;;;35.10;63.30;;;;;;5041865;28;20045;-50
2021/07/04 11:44:14;;;;;;;2.42;1.50;;;36.20;61.40;;;;;;5043547;28;20388;-51
2021/07/04 11:47:18;;;;;;;7.88;1.88;;;37.50;60.50;;;;;;5035265;28;20033;-49
2021/07/04 11:50:22;;;;;;;2.90;1.40;;;37.60;59.60;;;;;;5037046;28;20527;-48
2021/07/04 11:53:27;;;;;;;4.22;1.60;;;36.30;60.30;;;;;;5039855;28;20606;-49
2021/07/04 11:56:31;;;;;;;3.22;1.83;;;35.90;60.10;;;;;;5042706;28;20040;-49
2021/07/04 11:59:36;;;;;;;4.32;1.48;;;36.20;61.40;;;;;;5041980;28;20441;-49
2021/07/04 12:02:47;;;;;;;3.75;1.55;;;36.60;61.20;;;;;;5040157;28;20057;-50
2021/07/04 12:06:04;;;;;;;6.70;1.85;;;36.80;60.80;;;;;;5035912;28;20040;-48
2021/07/04 12:09:09;;;;;;;8.98;1.98;;;36.50;59.90;;;;;;5041600;28;20038;-50
2021/07/04 12:12:17;;;;;;;5.35;1.45;;;36.00;61.50;;;;;;5040385;28;20033;-49
2021/07/04 12:15:21;;;;;;;5.97;1.63;;;35.50;61.70;;;;;;5029265;28;20507;-48
2021/07/04 12:18:26;;;;;;;3.97;1.50;;;35.10;62.30;;;;;;5041164;28;20415;-51
2021/07/04 12:21:38;;;;;;;11.98;3.20;;;34.50;62.80;;;;;;5041633;28;20044;-49
2021/07/04 12:24:44;;;;;;;2.72;1.85;;;34.00;64.00;;;;;;5040467;28;20049;-48
2021/07/04 12:27:57;;;;;;;26.02;2.50;;;33.90;64.90;;;;;;5041634;28;20517;-49
2021/07/04 12:31:01;;;;;;;10.30;1.98;;;34.00;64.60;;;;;;5040774;28;20048;-49
2021/07/04 12:34:05;;;;;;;3.08;1.33;;;34.40;64.60;;;;;;5039189;28;20063;-50
2021/07/04 12:37:09;;;;;;;4.47;1.80;;;34.90;64.00;;;;;;5040825;28;20052;-48
2021/07/04 12:40:21;;;;;;;4.28;1.50;;;35.60;63.20;;;;;;5039836;28;20522;-48
2021/07/04 12:43:36;;;;;;;4.75;1.55;;;36.50;61.50;;;;;;5038805;28;20660;-49
2021/07/04 12:46:40;;;;;;;8.75;1.98;;;36.70;61.30;;;;;;5040256;28;20033;-47
2021/07/04 12:49:44;;;;;;;7.03;1.88;;;36.70;62.00;;;;;;5042811;28;20411;-47
2021/07/04 12:52:57;;;;;;;5.53;1.63;;;36.90;61.60;;;;;;5040706;28;20045;-47
2021/07/04 12:56:03;;;;;;;6.38;1.80;;;37.10;61.90;;;;;;5040015;28;20419;-49
2021/07/04 12:59:07;;;;;;;8.43;1.98;;;37.00;61.90;;;;;;5042082;28;20443;-47
2021/07/04 13:02:11;;;;;;;4.75;1.92;;;36.90;62.00;;;;;;5040315;28;20045;-51
2021/07/04 13:05:15;;;;;;;6.68;1.80;;;36.60;62.40;;;;;;5042913;28;20049;-47
2021/07/04 13:08:20;;;;;;;4.97;1.50;;;36.00;63.20;;;;;;5038144;28;20048;-47
2021/07/04 13:11:25;;;;;;;4.20;1.98;;;35.30;63.70;;;;;;5040165;28;20043;-47
2021/07/04 13:14:43;;;;;;;5.20;2.03;;;35.10;64.30;;;;;;5040681;28;20485;-48
2021/07/04 13:17:47;;;;;;;3.83;1.80;;;35.00;65.40;;;;;;5038852;28;20044;-50
2021/07/04 13:20:52;;;;;;;7.25;2.28;;;34.80;65.10;;;;;;5040674;28;20048;-50
2021/07/04 13:24:29;;;;;;;4.32;1.73;;;34.50;65.80;;;;;;5039636;28;20064;-50
2021/07/04 13:27:36;;;;;;;6.32;1.80;;;33.70;66.70;;;;;;5035470;28;20046;-48
2021/07/04 13:30:54;;;;;;;3.88;2.00;;;32.90;67.70;;;;;;5039319;28;20517;-49
2021/07/04 13:33:58;;;;;;;4.75;2.30;;;32.30;69.10;;;;;;5038034;28;20045;-48
2021/07/04 13:37:08;;;;;;;7.65;2.65;;;31.40;70.30;;;;;;5040468;28;20510;-48
2021/07/04 13:40:16;;;;;;;6.95;3.17;;;30.80;71.40;;;;;;5040133;28;20038;-49
2021/07/04 13:43:21;;;;;;;8.88;2.60;;;30.70;72.20;;;;;;5039529;28;20037;-49
2021/07/04 13:46:35;;;;;;;6.18;2.15;;;30.50;71.80;;;;;;5041278;28;20045;-47
2021/07/04 13:49:40;;;;;;;4.55;2.42;;;30.60;71.90;;;;;;5043950;28;20042;-50
2021/07/04 13:52:45;;;;;;;5.15;2.10;;;30.60;72.40;;;;;;5044699;28;20426;-47
2021/07/04 13:55:51;;;;;;;4.57;2.50;;;30.70;72.70;;;;;;5044063;28;20053;-49
2021/07/04 13:58:55;;;;;;;5.13;2.40;;;30.80;73.10;;;;;;5041890;28;20097;-49
2021/07/04 14:02:02;;;;;;;11.65;2.90;;;31.00;73.20;;;;;;5039506;28;20052;-49
2021/07/04 14:05:07;;;;;;;6.82;2.92;;;31.60;72.70;;;;;;5044024;28;20506;-49
2021/07/04 14:08:12;;;;;;;4.45;2.13;;;31.80;72.40;;;;;;5044679;28;20041;-50
2021/07/04 14:11:16;;;;;;;8.95;2.90;;;32.10;72.70;;;;;;5042413;28;20050;-48
2021/07/04 14:14:20;;;;;;;4.53;2.63;;;31.80;72.60;;;;;;5047425;28;20040;-49
2021/07/04 14:17:26;;;;;;;5.53;2.53;;;31.80;72.60;;;;;;5040651;28;20048;-48
2021/07/04 14:20:32;;;;;;;7.05;2.88;;;31.40;73.00;;;;;;5031775;28;20510;-49
2021/07/04 14:23:36;;;;;;;6.03;2.65;;;30.90;74.20;;;;;;5042624;28;20084;-49
2021/07/04 14:26:43;;;;;;;8.27;3.38;;;30.30;75.30;;;;;;5038356;28;20036;-48
2021/07/04 14:29:48;;;;;;;7.97;2.90;;;29.60;77.20;;;;;;5051716;28;20057;-49
2021/07/04 14:32:53;;;;;;;6.97;2.63;;;29.00;79.00;;;;;;5053740;28;20532;-50
2021/07/04 14:35:57;;;;;;;4.88;2.70;;;28.50;79.90;;;;;;5050250;28;20040;-48
2021/07/04 14:39:02;;;;;;;11.52;2.78;;;28.10;80.80;;;;;;5051056;28;20035;-47
2021/07/04 14:42:07;;;;;;;11.35;2.80;;;27.90;81.60;;;;;;5051524;28;20402;-47
2021/07/04 14:45:12;;;;;;;5.88;2.70;;;27.80;81.80;;;;;;5051722;28;20052;-47
2021/07/04 14:48:17;;;;;;;9.38;2.85;;;27.70;81.70;;;;;;5051684;28;20049;-49
2021/07/04 14:51:22;;;;;;;6.68;3.38;;;27.80;82.40;;;;;;5051371;28;20041;-49
2021/07/04 14:54:32;;;;;;;14.35;4.05;;;27.80;83.10;;;;;;5051502;28;20040;-48
2021/07/04 14:57:36;;;;;;;12.18;3.83;;;27.80;85.10;;;;;;5051263;28;20059;-47
2021/07/04 15:00:41;;;;;;;6.88;3.22;;;27.70;86.70;;;;;;5051146;28;20066;-49
2021/07/04 15:03:45;;;;;;;9.35;3.45;;;27.60;86.90;;;;;;5051381;28;20040;-48
2021/07/04 15:06:51;;;;;;;4.18;2.78;;;27.50;86.90;;;;;;5031131;28;20053;-49
2021/07/04 15:09:56;;;;;;;10.40;3.30;;;27.40;86.20;;;;;;5031257;28;20052;-49
2021/07/04 15:13:00;;;;;;;12.50;3.17;;;27.20;87.10;;;;;;5046970;28;20061;-47
2021/07/04 15:16:05;;;;;;;7.10;3.00;;;27.10;87.00;;;;;;5050111;28;20406;-48
2021/07/04 15:19:10;;;;;;;5.53;3.20;;;27.10;87.10;;;;;;5050859;28;20494;-47
2021/07/04 15:22:16;;;;;;;5.68;3.15;;;27.00;87.20;;;;;;5043949;28;20037;-52
2021/07/04 15:25:21;;;;;;;5.80;3.05;;;26.80;88.40;;;;;;5049434;28;20048;-50
2021/07/04 15:28:25;;;;;;;8.20;3.70;;;26.80;89.30;;;;;;5049367;28;20040;-48
2021/07/04 15:31:31;;;;;;;5.38;3.30;;;26.80;89.40;;;;;;5050861;28;20402;-49
2021/07/04 15:34:36;;;;;;;5.32;3.63;;;26.80;89.60;;;;;;5050520;28;20427;-46
2021/07/04 15:37:41;;;;;;;10.48;3.35;;;26.80;89.40;;;;;;5050734;28;20414;-49
2021/07/04 15:40:46;;;;;;;7.32;3.40;;;26.80;89.40;;;;;;5046439;28;20048;-48
2021/07/04 15:43:50;;;;;;;11.40;3.40;;;26.80;89.20;;;;;;5032775;28;20045;-47
2021/07/04 15:46:54;;;;;;;10.00;3.90;;;26.50;89.50;;;;;;5047517;28;20028;-48
2021/07/04 15:49:59;;;;;;;14.48;3.92;;;26.50;90.00;;;;;;5048586;28;20414;-47
2021/07/04 15:53:07;;;;;;;9.85;3.40;;;26.60;90.30;;;;;;5049390;28;20426;-47
2021/07/04 15:56:11;;;;;;;7.60;3.50;;;26.60;90.50;;;;;;5050183;28;20112;-48
2021/07/04 15:59:15;;;;;;;8.35;3.22;;;26.80;90.20;;;;;;5049449;28;20040;-47
2021/07/04 16:02:20;;;;;;;10.98;3.60;;;27.10;89.80;;;;;;5050560;28;20052;-47
2021/07/04 16:05:24;;;;;;;4.85;3.28;;;27.30;89.80;;;;;;5050156;28;20403;-52
2021/07/04 16:08:28;;;;;;;8.27;3.08;;;27.30;89.30;;;;;;5049633;28;20506;-47
2021/07/04 16:11:33;;;;;;;6.03;3.00;;;27.30;90.10;;;;;;5049895;28;20053;-47